Tiempo atmosférico en la estación meteorológica de San Bartolome Tirajana, Lomo Pedro Alfonso, Las Palmas (806 m.)



Fecha
DESCASC
Temp. máxima en grados centígrados (hora)
DESCASC
Temp. mínima en grados centígrados (hora)
DESCASC
Temp. media en grados centígrados
DESCASC
Racha de viento máxima en m/sg (hora)
DESCASC
Velocidad máxima media en intervalos de 10 minutos(hora)
DESCASC
Precipitaciones diarias en mm
DESCASC
Precipitaciones de 00:00 a 06:00 en mm
DESCASC
Precipitaciones de 06:00 a 12:00 en mm
DESCASC
Precipitaciones de 12:00 a 18:00 en mm
DESCASC
Precipitaciones de 18:00 a 24:00 en mm
DESCASC
23-06-2019 24.5 (16:50) 14.1 (07:10) 19.3 7.78 (17:00) 4.17 (16:00) 0 0 0 0 0
22-06-2019 23.7 (15:20) 14.2 (05:20) 19 8.61 (17:00) 3.89 (17:30) 0 0 0 0 0
21-06-2019 21.4 (19:20) 13.7 (05:30) 17.5 6.11 (17:10) 3.89 (18:10) 0 0 0 0 0
20-06-2019 19.3 (18:40) 13.5 (00:00) 16.4 5.83 (19:30) 3.33 (07:00) 0 0 0 0 0
19-06-2019 20.7 (16:20) 15.5 (00:00) 18.1 5.28 (18:00) 3.33 (12:20) 0 0 0 0 0
18-06-2019 25.2 (17:40) 15.4 (00:00) 20.3 8.33 (18:00) 4.17 (15:20) 0 0 0 0 0
17-06-2019 23.8 (16:00) 12.8 (00:00) 18.3 7.22 (17:30) 3.89 (16:20) 0 0 0 0 0
16-06-2019 22.2 (17:00) 12.6 (00:00) 17.4 7.5 (12:00) 4.17 (17:20) 0 0 0 0 0
15-06-2019 19.2 (14:30) 12.5 (00:00) 15.9 7.22 (11:50) 3.89 (15:30) 0 0 0 0 0
14-06-2019 17.2 (11:20) 11.7 (00:00) 14.5 8.61 (11:40) 3.61 (16:30) 0 0 0 0 0
13-06-2019 17.9 (15:40) 12.1 (00:00) 15 8.61 (03:00) 5.28 (03:00) 0 0 0 0 0
12-06-2019 18.8 (16:50) 13.7 (00:00) 16.2 7.5 (10:10) 4.17 (18:00) 0 0 0 0 0
11-06-2019 24.1 (17:20) 12.8 (00:00) 18.5 8.06 (16:40) 4.72 (16:40) 0 0 0 0 0
10-06-2019 24 (17:40) 12.3 (00:00) 18.2 7.22 (18:20) 3.89 (18:30) 0 0 0 0 0
09-06-2019 23.4 (17:30) 13.9 (00:00) 18.6 6.67 (14:40) 3.33 (13:00) 0 0 0 0 0
08-06-2019 21.9 (18:00) 13.5 (00:00) 17.7 8.33 (18:50) 4.44 (17:30) 0 0 0 0 0
07-06-2019 22.9 (15:50) 12.1 (00:00) 17.5 8.89 (17:20) 4.72 (16:20) 0 0 0 0 0
06-06-2019 22.4 (16:00) 13.8 (00:00) 18.1 8.89 (16:20) 4.44 (16:50) 0 0 0 0 0
05-06-2019 20.3 (14:40) 15 (00:00) 17.6 6.67 (19:20) 3.61 (05:30) 0 0 0 0 0
04-06-2019 29.6 (15:50) 20 (00:00) 24.8 6.94 (17:20) 3.89 (17:50) 0 0 0 0 0
03-06-2019 33.3 (15:40) 24.9 (00:00) 29.1 6.39 (16:20) 3.61 (16:20) 0 0 0 0 0
02-06-2019 31.9 (13:30) 22.1 (00:00) 27 11.11 (05:20) 7.22 (03:20) 0 0 0 0 0
01-06-2019 26.9 (15:40) 17.6 (00:00) 22.3 9.72 (05:20) 6.39 (05:30) 0 0 0 0 0
31-05-2019 26 (18:00) 19.6 (00:00) 22.8 5.83 (17:10) 2.78 (15:40) 0 0 0 0 0
30-05-2019 25.6 (17:30) 17.2 (00:00) 21.4 5.83 (14:50) 3.33 (14:50) 0 0 0 0 0
29-05-2019 25.8 (15:30) 16.1 (00:00) 20.9 8.06 (14:50) 3.61 (15:50) 0 0 0 0 0
28-05-2019 26.2 (15:20) 18.8 (00:00) 22.5 6.11 (15:30) 3.61 (16:50) 0 0 0 0 0
27-05-2019 27.8 (17:10) 17.3 (00:00) 22.5 6.94 (12:50) 4.17 (17:10) 0 0 0 0 0

Gráficas

Temp. máximas Temp. mínimas Temp. medias Precipitaciones Rachas de viento máximas Velocidades máximas media en intervalos de 10 minutos

Datos horarios

Fecha y hora oficial Temperatura (ºC) Velocidad del viento (km/h) Dirección del viento Racha (km/h) Dirección de racha Precipitación (mm) Presión (hPa) Tendencia (hPa) Humedad (%)
2019-06-25 23:00:00 18.1 3 Oeste 9 Nordeste 0 -- -- 89
2019-06-25 22:00:00 18.7 2 Norte 9 Sudoeste 0 -- -- 82
2019-06-25 21:00:00 20.6 5 Sudoeste 15 Oeste 0 -- -- 76
2019-06-25 20:00:00 21.3 8 Oeste 18 Oeste 0 -- -- 76
2019-06-25 19:00:00 23 10 Oeste 21 Oeste 0 -- -- 70
2019-06-25 18:00:00 24.9 13 Oeste 26 Sudoeste 0 -- -- 65
2019-06-25 17:00:00 24.1 12 Oeste 25 Oeste 0 -- -- 69
2019-06-25 16:00:00 20.2 8 Oeste 17 Oeste 0 -- -- 82
2019-06-25 15:00:00 20 8 Oeste 15 Sudoeste 0 -- -- 83
2019-06-25 14:00:00 19.8 7 Sudoeste 21 Sudoeste 0 -- -- 84
2019-06-25 13:00:00 21 9 Sudoeste 17 Sudoeste 0 -- -- 78
2019-06-25 12:00:00 20.5 9 Sudoeste 16 Sur 0 -- -- 83
2019-06-25 11:00:00 21.7 4 Oeste 16 Sur 0 -- -- 76
2019-06-25 10:00:00 20.2 2 Sudoeste 6 Sur 0 -- -- 75
2019-06-25 09:00:00 18.7 0 Calma 2 Sudoeste 0 -- -- 79
2019-06-25 08:00:00 17.3 3 Nordeste 5 Nordeste 0 -- -- 78
2019-06-25 07:00:00 17.7 0 Calma 5 Nordeste 0 -- -- 77
2019-06-25 06:00:00 18.1 3 Nordeste 5 Norte 0 -- -- 76
2019-06-25 05:00:00 18.1 0 Calma 7 Nordeste 0 -- -- 76
2019-06-25 04:00:00 18.1 7 Este 11 Este 0 -- -- 77
2019-06-25 03:00:00 18.9 6 Este 8 Este 0 -- -- 75
2019-06-25 02:00:00 18.9 6 Este 9 Nordeste 0 -- -- 72
2019-06-25 01:00:00 18.2 5 Nordeste 8 Nordeste 0 -- -- 81
2019-06-25 00:00:00 18.6 0 Calma 4 Nordeste 0 -- -- 82
2019-06-24 23:00:00 18.8 0 Calma 8 Norte 0 -- -- 84
2019-06-24 22:00:00 19.6 3 Sur 5 Sur 0 -- -- 80
2019-06-24 21:00:00 20.9 3 Norte 13 Oeste 0 -- -- 76
2019-06-24 20:00:00 22.3 8 Oeste 17 Oeste 0 -- -- 69
2019-06-24 19:00:00 20.9 9 Oeste 17 Oeste 0 -- -- 77
2019-06-24 18:00:00 19.3 8 Oeste 19 Sudoeste 0 -- -- 87
2019-06-24 17:00:00 20.3 10 Oeste 22 Oeste 0 -- -- 83
2019-06-24 16:00:00 22.4 11 Oeste 23 Oeste 0 -- -- 75
2019-06-24 15:00:00 22 9 Oeste 22 Sudoeste 0 -- -- 75
2019-06-24 14:00:00 21.9 9 Sudoeste 28 Sudoeste 0 -- -- 73
2019-06-24 13:00:00 20.5 9 Sudoeste 17 Sur 0 -- -- 79
2019-06-24 12:00:00 20.3 7 Sudoeste 14 Sur 0 -- -- 78
2019-06-24 11:00:00 19 8 Sudoeste 15 Sudoeste 0 -- -- 83
2019-06-24 10:00:00 18.4 0 Calma 9 Oeste 0 -- -- 85
2019-06-24 09:00:00 17.2 0 Calma 5 Este 0 -- -- 91
2019-06-24 08:00:00 16.2 0 Calma 8 Sudeste 0 -- -- 92
2019-06-24 07:00:00 16.4 0 Calma 5 Noroeste 0 -- -- 92
2019-06-24 06:00:00 16.6 0 Calma 5 Norte 0 -- -- 92
2019-06-24 05:00:00 17.2 3 Noroeste 5 Oeste 0 -- -- 93
2019-06-24 04:00:00 17.1 2 Sudoeste 6 Oeste 0 -- -- 93
2019-06-24 03:00:00 17.3 3 Noroeste 8 Sur 0 -- -- 93
2019-06-24 02:00:00 17.4 4 Sudoeste 8 Noroeste 0 -- -- 91
2019-06-24 01:00:00 17.7 5 Oeste 9 Oeste 0 -- -- 91
2019-06-24 00:00:00 17.7 4 Oeste 10 Oeste 0 -- -- 91
2019-06-23 23:00:00 17.8 4 Sudoeste 14 Sudoeste 0 -- -- 90
2019-06-23 22:00:00 17.8 8 Sudoeste 13 Sur 0 -- -- 89
2019-06-23 21:00:00 19 9 Sudoeste 20 Oeste 0 -- -- 84
2019-06-23 20:00:00 21.8 8 Sudoeste 23 Oeste 0 -- -- 74
2019-06-23 19:00:00 24 12 Oeste 22 Oeste 0 -- -- 66
2019-06-23 18:00:00 24 13 Oeste 24 Oeste 0 -- -- 66
2019-06-23 17:00:00 24.3 13 Oeste 28 Oeste 0 -- -- 64
2019-06-23 16:00:00 23.9 15 Oeste 25 Oeste 0 -- -- 65
2019-06-23 15:00:00 22.6 11 Sudoeste 25 Oeste 0 -- -- 67
2019-06-23 14:00:00 21.7 9 Sudoeste 20 Sudoeste 0 -- -- 70
2019-06-23 13:00:00 21.8 10 Oeste 17 Sudoeste 0 -- -- 67
2019-06-23 12:00:00 20.7 7 Oeste 13 Sur 0 -- -- 72
2019-06-23 11:00:00 19.2 7 Sudoeste 18 Sudoeste 0 -- -- 78
2019-06-23 10:00:00 17.5 4 Sur 10 Sudoeste 0 -- -- 86
2019-06-23 09:00:00 15.9 0 Calma 7 Este 0 -- -- 90
2019-06-23 08:00:00 14.4 0 Calma 9 Norte 0 -- -- 92
2019-06-23 07:00:00 14.2 0 Calma 11 Este 0 -- -- 94
2019-06-23 06:00:00 14.6 4 Este 11 Este 0 -- -- 92
2019-06-23 05:00:00 14.7 0 Calma 8 Este 0 -- -- 92
2019-06-23 04:00:00 15.2 2 Sudoeste 9 Sudoeste 0 -- -- 92
2019-06-23 03:00:00 15.6 4 Oeste 9 Oeste 0 -- -- 93
2019-06-23 02:00:00 15.6 3 Norte 12 Oeste 0 -- -- 92
2019-06-23 01:00:00 15.8 4 Oeste 13 Oeste 0 -- -- 91
2019-06-23 00:00:00 16.3 5 Oeste 10 Oeste 0 -- -- 91
2019-06-22 23:00:00 16.3 2 Oeste 6 Oeste 0 -- -- 90
2019-06-22 22:00:00 17.3 2 Oeste 9 Oeste 0 -- -- 85
2019-06-22 21:00:00 19 3 Noroeste 13 Sudoeste 0 -- -- 78
2019-06-22 20:00:00 21.4 9 Oeste 19 Oeste 0 -- -- 70
2019-06-22 19:00:00 22.5 12 Oeste 23 Oeste 0 -- -- 66
2019-06-22 18:00:00 22.9 13 Oeste 26 Oeste 0 -- -- 65
2019-06-22 17:00:00 23 13 Oeste 31 Oeste 0 -- -- 66
2019-06-22 16:00:00 22.3 12 Oeste 24 Oeste 0 -- -- 66
2019-06-22 15:00:00 23.3 12 Sudoeste 22 Oeste 0 -- -- 62
2019-06-22 14:00:00 20.6 9 Sudoeste 20 Noroeste 0 -- -- 73
2019-06-22 13:00:00 20.5 9 Sudoeste 21 Sudoeste 0 -- -- 71
2019-06-22 12:00:00 19.8 7 Sudoeste 17 Sur 0 -- -- 74
2019-06-22 11:00:00 18.7 7 Sudoeste 17 Sur 0 -- -- 78
2019-06-22 10:00:00 16.6 3 Sudoeste 8 Oeste 0 -- -- 85
2019-06-22 09:00:00 15.8 4 Noroeste 8 Norte 0 -- -- 89
2019-06-22 08:00:00 14.7 0 Calma 5 Oeste 0 -- -- 94
2019-06-22 07:00:00 14.5 0 Calma 6 Oeste 0 -- -- 93
2019-06-22 06:00:00 14.2 3 Sur 7 Sur 0 -- -- 93
2019-06-22 05:00:00 14.3 0 Calma 12 Oeste 0 -- -- 92
2019-06-22 04:00:00 14.8 4 Oeste 9 Oeste 0 -- -- 93
2019-06-22 03:00:00 15 5 Oeste 10 Oeste 0 -- -- 93
2019-06-22 02:00:00 15.2 0 Calma 4 Oeste 0 -- -- 93
2019-06-22 01:00:00 15.6 2 Norte 7 Este 0 -- -- 93
2019-06-22 00:00:00 16 0 Calma 6 Oeste 0 -- -- 91
2019-06-21 23:00:00 16.6 4 Oeste 9 Oeste 0 -- -- 89
2019-06-21 22:00:00 17.2 4 Oeste 12 Oeste 0 -- -- 87
2019-06-21 21:00:00 18.4 8 Oeste 19 Sudoeste 0 -- -- 81
2019-06-21 20:00:00 21 10 Oeste 22 Oeste 0 -- -- 71
2019-06-21 19:00:00 20.3 12 Oeste 21 Oeste 0 -- -- 74
2019-06-21 18:00:00 18.7 11 Sur 22 Oeste 0 -- -- 79
2019-06-21 17:00:00 19.5 10 Sur 21 Sur 0 -- -- 75
2019-06-21 16:00:00 19.3 11 Sudoeste 20 Sudoeste 0 -- -- 78
2019-06-21 15:00:00 19.9 9 Sudoeste 19 Oeste 0 -- -- 75
2019-06-21 14:00:00 19.1 9 Oeste 17 Noroeste 0 -- -- 78
2019-06-21 13:00:00 18.9 8 Oeste 18 Oeste 0 -- -- 79
2019-06-21 12:00:00 18.2 6 Sudoeste 18 Sur 0 -- -- 81
2019-06-21 11:00:00 18.7 5 Oeste 14 Sudoeste 0 -- -- 79
2019-06-21 10:00:00 17.3 6 Sudoeste 13 Sur 0 -- -- 86
2019-06-21 09:00:00 14.9 2 Sur 9 Oeste 0 -- -- 93
2019-06-21 08:00:00 13.8 3 Noroeste 9 Noroeste 0 -- -- 91
2019-06-21 07:00:00 14 2 Nordeste 9 Norte 0 -- -- 92
2019-06-21 06:00:00 13.8 8 Norte 14 Norte 0 -- -- 80
2019-06-21 05:00:00 14.2 2 Nordeste 6 Sur 0 -- -- 91
2019-06-21 04:00:00 14.6 0 Calma 4 Oeste 0 -- -- 94
2019-06-21 03:00:00 14.5 0 Calma 5 Oeste 0 -- -- 92
2019-06-21 02:00:00 14.6 0 Calma 6 Nordeste 0 -- -- 93
2019-06-21 01:00:00 15.2 0 Calma 5 Sur 0 -- -- 92
2019-06-21 00:00:00 15.6 3 Sudeste 7 Este 0 -- -- 91
2019-06-20 23:00:00 15.9 4 Sur 9 Sur 0 -- -- 93
2019-06-20 22:00:00 16.4 4 Sur 9 Sur 0 -- -- 92
2019-06-20 21:00:00 17.4 4 Sudoeste 13 Sudoeste 0 -- -- 87
2019-06-20 20:00:00 19 7 Oeste 21 Noroeste 0 -- -- 80
2019-06-20 19:00:00 19 8 Oeste 18 Oeste 0 -- -- 80
2019-06-20 18:00:00 18.2 6 Oeste 15 Oeste 0 -- -- 83
2019-06-20 17:00:00 17.7 6 Sudoeste 15 Sudoeste 0 -- -- 86
2019-06-20 16:00:00 17.3 5 Sudoeste 13 Sudoeste 0 -- -- 87
2019-06-20 15:00:00 17.4 5 Sudoeste 13 Sudoeste 0 -- -- 88
2019-06-20 14:00:00 18.1 8 Sudoeste 17 Sudoeste 0 -- -- 84
2019-06-20 13:00:00 19 7 Oeste 17 Sudoeste 0 -- -- 79
2019-06-20 12:00:00 18.3 5 Sudoeste 18 Sudoeste 0 -- -- 81
2019-06-20 11:00:00 18.4 4 Sudoeste 13 Oeste 0 -- -- 75
2019-06-20 10:00:00 17 0 Calma 9 Sudoeste 0 -- -- 78
2019-06-20 09:00:00 15.8 3 Sudeste 10 Este 0 -- -- 82
2019-06-20 08:00:00 14.1 8 Nordeste 14 Nordeste 0 -- -- 89
2019-06-20 07:00:00 13.6 12 Nordeste 14 Nordeste 0 -- -- 92
2019-06-20 06:00:00 14.1 4 Sur 7 Sudoeste 0 -- -- 94
2019-06-20 05:00:00 14.4 0 Calma 7 Oeste 0 -- -- 94
2019-06-20 04:00:00 14.5 0 Calma 5 Norte 0 -- -- 91
2019-06-20 03:00:00 15.2 5 Este 8 Este 0 -- -- 90
2019-06-20 02:00:00 15.5 6 Nordeste 9 Nordeste 0 -- -- 91
2019-06-20 01:00:00 15.6 0 Calma 5 Este 0 -- -- 91
2019-06-20 00:00:00 15.6 0 Calma 4 Sudoeste 0 -- -- 92
2019-06-19 23:00:00 16.1 0 Calma 12 Oeste 0 -- -- 90
2019-06-19 22:00:00 16.7 6 Sudoeste 13 Oeste 0 -- -- 90
2019-06-19 21:00:00 17.1 8 Oeste 18 Oeste 0 -- -- 88
2019-06-19 20:00:00 18 9 Sudoeste 16 Oeste 0 -- -- 84
2019-06-19 19:00:00 19.4 10 Oeste 18 Oeste 0 -- -- 79
2019-06-19 18:00:00 19 10 Oeste 19 Oeste 0 -- -- 82
2019-06-19 17:00:00 20.1 10 Oeste 19 Oeste 0 -- -- 77
2019-06-19 16:00:00 19.3 8 Sudoeste 16 Oeste 0 -- -- 83
2019-06-19 15:00:00 17.2 6 Sudoeste 13 Oeste 0 -- -- 91
2019-06-19 14:00:00 17.7 5 Oeste 15 Sudoeste 0 -- -- 89
2019-06-19 13:00:00 18 7 Sudoeste 18 Sudoeste 0 -- -- 86
2019-06-19 12:00:00 18.9 11 Sudoeste 17 Sur 0 -- -- 83
2019-06-19 11:00:00 19.2 5 Oeste 10 Oeste 0 -- -- 80
2019-06-19 10:00:00 18.3 2 Oeste 5 Oeste 0 -- -- 74
2019-06-19 09:00:00 17 0 Calma 4 Oeste 0 -- -- 85
2019-06-19 08:00:00 16.2 0 Calma 6 Noroeste 0 -- -- 93
2019-06-19 07:00:00 15.9 3 Sur 6 Sur 0 -- -- 92
2019-06-19 06:00:00 16.2 3 Oeste 8 Oeste 0 -- -- 92
2019-06-19 05:00:00 16.5 5 Oeste 8 Oeste 0 -- -- 92
2019-06-19 04:00:00 16.8 2 Oeste 6 Norte 0 -- -- 91
2019-06-19 03:00:00 16.8 0 Calma 7 Oeste 0 -- -- 86
2019-06-19 02:00:00 17 2 Noroeste 4 Oeste 0 -- -- 90
2019-06-19 01:00:00 17.1 2 Noroeste 5 Noroeste 0 -- -- 89
2019-06-19 00:00:00 17.5 2 Oeste 6 Oeste 0 -- -- 87
2019-06-18 23:00:00 17.9 2 Noroeste 7 Oeste 0 -- -- 84
2019-06-18 22:00:00 18.2 4 Oeste 10 Noroeste 0 -- -- 81
2019-06-18 21:00:00 18.7 6 Oeste 18 Oeste 0 -- -- 78
2019-06-18 20:00:00 21.6 12 Oeste 21 Oeste 0 -- -- 68
2019-06-18 19:00:00 23.5 13 Oeste 26 Oeste 0 -- -- 61
2019-06-18 18:00:00 24.6 12 Oeste 30 Oeste 0 -- -- 57
2019-06-18 17:00:00 23.9 13 Oeste 23 Oeste 0 -- -- 60
2019-06-18 16:00:00 21.5 12 Sudoeste 25 Sur 0 -- -- 67
2019-06-18 15:00:00 22.4 14 Sudoeste 26 Sudoeste 0 -- -- 64
2019-06-18 14:00:00 22.9 11 Sudoeste 23 Sudoeste 0 -- -- 63
2019-06-18 13:00:00 21.4 9 Sudoeste 18 Oeste 0 -- -- 66
2019-06-18 12:00:00 21.5 10 Oeste 18 Sudoeste 0 -- -- 65
2019-06-18 11:00:00 19.6 4 Oeste 12 Oeste 0 -- -- 71
2019-06-18 10:00:00 17.9 0 Calma 4 Sudoeste 0 -- -- 78
2019-06-18 09:00:00 16.5 0 Calma 4 Sur 0 -- -- 83
2019-06-18 08:00:00 15.5 0 Calma 3 Nordeste 0 -- -- 87
2019-06-18 07:00:00 15.5 0 Calma 4 Nordeste 0 -- -- 89
2019-06-18 06:00:00 15.5 0 Calma 6 Nordeste 0 -- -- 87
2019-06-18 05:00:00 15.8 5 Nordeste 10 Este 0 -- -- 86
2019-06-18 04:00:00 16.2 4 Este 10 Este 0 -- -- 87
2019-06-18 03:00:00 16.1 0 Calma 13 Este 0 -- -- 88
2019-06-18 02:00:00 16.5 6 Este 11 Este 0 -- -- 86
2019-06-18 01:00:00 16.2 0 Calma 2 Oeste 0 -- -- 88
2019-06-18 00:00:00 16.4 0 Calma 3 Nordeste 0 -- -- 89
2019-06-17 23:00:00 17 0 Calma 5 Noroeste 0 -- -- 86
2019-06-17 22:00:00 17.4 0 Calma 8 Norte 0 -- -- 86
2019-06-17 21:00:00 19.2 7 Oeste 14 Oeste 0 -- -- 78
2019-06-17 20:00:00 21 8 Oeste 20 Oeste 0 -- -- 70
2019-06-17 19:00:00 22.6 10 Oeste 25 Oeste 0 -- -- 64
2019-06-17 18:00:00 23.3 11 Oeste 26 Oeste 0 -- -- 62
2019-06-17 17:00:00 23.4 13 Oeste 26 Oeste 0 -- -- 60
2019-06-17 16:00:00 23.8 12 Oeste 22 Oeste 0 -- -- 58
2019-06-17 15:00:00 23.7 11 Oeste 21 Oeste 0 -- -- 58
2019-06-17 14:00:00 22 12 Sudoeste 22 Sur 0 -- -- 63
2019-06-17 13:00:00 21.6 11 Sudoeste 23 Sudoeste 0 -- -- 66
2019-06-17 12:00:00 19.9 5 Oeste 11 Oeste 0 -- -- 70
2019-06-17 11:00:00 18.2 3 Oeste 11 Noroeste 0 -- -- 75
2019-06-17 10:00:00 16.2 2 Oeste 8 Sur 0 -- -- 85
2019-06-17 09:00:00 14.2 0 Calma 4 Sudoeste 0 -- -- 91
2019-06-17 08:00:00 12.9 0 Calma 7 Sur 0 -- -- 92
2019-06-17 07:00:00 13.5 3 Nordeste 6 Sudoeste 0 -- -- 87
2019-06-17 06:00:00 13.4 4 Noroeste 9 Noroeste 0 -- -- 94
2019-06-17 05:00:00 13.2 0 Calma 9 Oeste 0 -- -- 93
2019-06-17 04:00:00 13.6 3 Noroeste 13 Este 0 -- -- 93
2019-06-17 03:00:00 13.8 0 Calma 10 Norte 0 -- -- 90
2019-06-17 02:00:00 14.3 4 Noroeste 8 Oeste 0 -- -- 91
2019-06-17 01:00:00 14.2 0 Calma 8 Oeste 0 -- -- 90
2019-06-17 00:00:00 14.1 3 Noroeste 6 Noroeste 0 -- -- 90
2019-06-16 23:00:00 14.5 3 Oeste 8 Sudoeste 0 -- -- 87
2019-06-16 22:00:00 15.3 5 Oeste 14 Oeste 0 -- -- 83
2019-06-16 21:00:00 16.5 6 Oeste 17 Noroeste 0 -- -- 77
2019-06-16 20:00:00 19.8 11 Oeste 22 Oeste 0 -- -- 67
2019-06-16 19:00:00 20.1 9 Sudoeste 23 Oeste 0 -- -- 68
2019-06-16 18:00:00 21.2 14 Oeste 26 Oeste 0 -- -- 63
2019-06-16 17:00:00 22.2 12 Oeste 26 Oeste 0 -- -- 60
2019-06-16 16:00:00 21 14 Oeste 21 Oeste 0 -- -- 63
2019-06-16 15:00:00 18.6 10 Sudoeste 22 Oeste 0 -- -- 72
2019-06-16 14:00:00 19.6 12 Oeste 21 Oeste 0 -- -- 68
2019-06-16 13:00:00 19 9 Sudoeste 20 Sudoeste 0 -- -- 71
2019-06-16 12:00:00 18.5 9 Sudoeste 27 Sur 0 -- -- 70
2019-06-16 11:00:00 17.2 5 Oeste 12 Norte 0 -- -- 73
2019-06-16 10:00:00 15.6 3 Noroeste 8 Norte 0 -- -- 78
2019-06-16 09:00:00 13.4 0 Calma 5 Sudoeste 0 -- -- 87
2019-06-16 08:00:00 12.6 0 Calma 9 Nordeste 0 -- -- 86
2019-06-16 07:00:00 12.8 2 Este 8 Este 0 -- -- 87
2019-06-16 06:00:00 12.7 0 Calma 4 Sudeste 0 -- -- 90
2019-06-16 05:00:00 13.1 4 Sudeste 5 Sur 0 -- -- 90
2019-06-16 04:00:00 13.6 5 Sudoeste 10 Oeste 0 -- -- 90
2019-06-16 03:00:00 14 6 Oeste 13 Oeste 0 -- -- 88
2019-06-16 02:00:00 14 5 Sudoeste 10 Oeste 0 -- -- 88
2019-06-16 01:00:00 14.1 5 Oeste 12 Sudoeste 0 -- -- 88
2019-06-16 00:00:00 14.2 3 Oeste 10 Oeste 0 -- -- 87
2019-06-15 23:00:00 14.3 7 Sudoeste 12 Sudoeste 0 -- -- 87
2019-06-15 22:00:00 14.5 6 Sudoeste 15 Oeste 0 -- -- 85
2019-06-15 21:00:00 15 8 Oeste 18 Oeste 0 -- -- 82
2019-06-15 20:00:00 15.3 6 Oeste 13 Sudoeste 0 -- -- 80
2019-06-15 19:00:00 15.4 9 Sudoeste 22 Sudoeste 0 -- -- 78
2019-06-15 18:00:00 16.4 12 Sudoeste 20 Sudoeste 0 -- -- 76
2019-06-15 17:00:00 17.6 11 Sudoeste 21 Sudoeste 0 -- -- 71
2019-06-15 16:00:00 16.4 13 Sudoeste 22 Sudoeste 0 -- -- 76
2019-06-15 15:00:00 18.3 14 Sudoeste 26 Sudoeste 0 -- -- 68
2019-06-15 14:00:00 18.4 12 Sudoeste 21 Sur 0 -- -- 65
2019-06-15 13:00:00 18.2 8 Oeste 22 Sur 0 -- -- 65
2019-06-15 12:00:00 18.7 11 Sudoeste 26 Oeste 0 -- -- 64
2019-06-15 11:00:00 16.8 6 Sudoeste 15 Sur 0 -- -- 69
2019-06-15 10:00:00 15.6 3 Sudoeste 10 Oeste 0 -- -- 67
2019-06-15 09:00:00 14.3 9 Noroeste 16 Noroeste 0 -- -- 76
2019-06-15 08:00:00 12.8 6 Noroeste 10 Noroeste 0 -- -- 82
2019-06-15 07:00:00 12.9 3 Sur 9 Sur 0 -- -- 82
2019-06-15 06:00:00 12.8 0 Calma 7 Este 0 -- -- 88
2019-06-15 05:00:00 12.6 3 Oeste 5 Sur 0 -- -- 91
2019-06-15 04:00:00 12.6 4 Sur 5 Sur 0 -- -- 89
2019-06-15 03:00:00 13.1 0 Calma 8 Oeste 0 -- -- 89
2019-06-15 02:00:00 13.2 4 Oeste 10 Oeste 0 -- -- 90
2019-06-15 01:00:00 13.3 4 Oeste 10 Sur 0 -- -- 91
2019-06-15 00:00:00 13.2 3 Sur 6 Sur 0 -- -- 91
2019-06-14 23:00:00 13.5 2 Sudeste 7 Sur 0 -- -- 88
2019-06-14 22:00:00 14.1 5 Sudoeste 13 Sudoeste 0 -- -- 86
2019-06-14 21:00:00 14.6 4 Oeste 15 Sudoeste 0 -- -- 83
2019-06-14 20:00:00 14.9 8 Oeste 18 Oeste 0 -- -- 82
2019-06-14 19:00:00 15.2 8 Sudoeste 19 Oeste 0 -- -- 81
2019-06-14 18:00:00 15.8 9 Oeste 24 Oeste 0 -- -- 78
2019-06-14 17:00:00 15.5 10 Oeste 25 Sudoeste 0 -- -- 79
2019-06-14 16:00:00 16.1 11 Oeste 21 Oeste 0 -- -- 82
2019-06-14 15:00:00 16.3 9 Oeste 18 Oeste 0 -- -- 78
2019-06-14 14:00:00 16.1 9 Noroeste 19 Oeste 0 -- -- 75
2019-06-14 13:00:00 16.2 9 Sudoeste 22 Oeste 0 -- -- 74
2019-06-14 12:00:00 16.5 9 Oeste 31 Sudoeste 0 -- -- 73
2019-06-14 11:00:00 16.5 9 Sudoeste 17 Oeste 0 -- -- 72
2019-06-14 10:00:00 15.1 5 Oeste 8 Oeste 0 -- -- 75
2019-06-14 09:00:00 13.5 0 Calma 6 Norte 0 -- -- 88
2019-06-14 08:00:00 12.3 2 Noroeste 5 Noroeste 0 -- -- 92
2019-06-14 07:00:00 11.8 3 Sur 4 Sur 0 -- -- 89
2019-06-14 06:00:00 11.7 0 Calma 9 Nordeste 0 -- -- 86
2019-06-14 05:00:00 11.8 3 Nordeste 8 Este 0 -- -- 89
2019-06-14 04:00:00 12 5 Nordeste 10 Nordeste 0 -- -- 80
2019-06-14 03:00:00 12.6 0 Calma 4 Norte 0 -- -- 88
2019-06-14 02:00:00 12.9 0 Calma 10 Nordeste 0 -- -- 88
2019-06-14 01:00:00 12.9 5 Nordeste 8 Sur 0 -- -- 89
2019-06-14 00:00:00 13.5 6 Sur 10 Sudoeste 0 -- -- 90
2019-06-13 23:00:00 14.2 5 Sudoeste 17 Oeste 0 -- -- 84
2019-06-13 22:00:00 14.9 8 Oeste 15 Oeste 0 -- -- 80
2019-06-13 21:00:00 15.1 6 Oeste 12 Oeste 0 -- -- 80
2019-06-13 20:00:00 15.1 6 Sudoeste 16 Sudoeste 0 -- -- 79
2019-06-13 19:00:00 15.8 7 Sudoeste 17 Oeste 0 -- -- 78
2019-06-13 18:00:00 16.5 6 Oeste 19 Oeste 0 -- -- 75
2019-06-13 17:00:00 17.9 8 Oeste 19 Oeste 0 -- -- 71
2019-06-13 16:00:00 17.4 8 Sudoeste 20 Oeste 0 -- -- 71
2019-06-13 15:00:00 17.7 8 Oeste 22 Oeste 0 -- -- 69
2019-06-13 14:00:00 17.6 9 Oeste 24 Oeste 0 -- -- 70
2019-06-13 13:00:00 17.3 10 Oeste 22 Oeste 0 -- -- 71
2019-06-13 12:00:00 16.5 8 Sudoeste 17 Sur 0 -- -- 74
2019-06-13 11:00:00 16.2 8 Sudoeste 14 Oeste 0 -- -- 75
2019-06-13 10:00:00 15.4 4 Oeste 10 Noroeste 0 -- -- 67
2019-06-13 09:00:00 13.7 4 Sur 8 Este 0 -- -- 76
2019-06-13 08:00:00 12.3 5 Nordeste 14 Norte 0 -- -- 77
2019-06-13 07:00:00 12.2 5 Nordeste 27 Norte 0 -- -- 74
2019-06-13 06:00:00 12.6 15 Norte 26 Noroeste 0 -- -- 73
2019-06-13 05:00:00 12.6 12 Noroeste 28 Norte 0 -- -- 78
2019-06-13 04:00:00 12.5 14 Norte 28 Noroeste 0 -- -- 73
2019-06-13 03:00:00 12.7 19 Norte 31 Noroeste 0 -- -- 69
2019-06-13 02:00:00 13.1 4 Sudoeste 13 Oeste 0 -- -- 73
2019-06-13 01:00:00 13.9 6 Sudeste 9 Este 0 -- -- 88
2019-06-13 00:00:00 13.7 5 Nordeste 12 Este 0 -- -- 89
2019-06-12 23:00:00 14.2 8 Nordeste 10 Nordeste 0 -- -- 85
2019-06-12 22:00:00 14.9 8 Oeste 22 Noroeste 0 -- -- 72
2019-06-12 21:00:00 16.2 11 Oeste 22 Oeste 0 -- -- 80
2019-06-12 20:00:00 17 8 Oeste 17 Oeste 0 -- -- 79
2019-06-12 19:00:00 16.6 12 Sur 21 Sur 0 -- -- 83
2019-06-12 18:00:00 18 15 Sur 25 Sur 0 -- -- 80
2019-06-12 17:00:00 18.8 7 Sur 18 Este 0 -- -- 77
2019-06-12 16:00:00 16.7 9 Sur 20 Oeste 0 -- -- 86
2019-06-12 15:00:00 17.6 9 Oeste 23 Oeste 0 -- -- 80
2019-06-12 14:00:00 18.3 8 Oeste 18 Oeste 0 -- -- 80
2019-06-12 13:00:00 16.4 5 Sudoeste 15 Oeste 0 -- -- 87
2019-06-12 12:00:00 17.1 8 Sudoeste 19 Sudoeste 0 -- -- 83
2019-06-12 11:00:00 16.9 9 Sudoeste 27 Nordeste 0 -- -- 84
2019-06-12 10:00:00 15.5 6 Sur 12 Sudoeste 0 -- -- 88
2019-06-12 09:00:00 14.4 6 Sur 10 Sur 0 -- -- 92
2019-06-12 08:00:00 14.3 6 Sudoeste 14 Oeste 0 -- -- 93
2019-06-12 07:00:00 14.2 6 Oeste 14 Oeste 0 -- -- 94
2019-06-12 06:00:00 14 2 Norte 15 Nordeste 0 -- -- 92
2019-06-12 05:00:00 14.2 12 Nordeste 17 Este 0 -- -- 90
2019-06-12 04:00:00 14.9 6 Oeste 16 Oeste 0 -- -- 91
2019-06-12 03:00:00 15 9 Sudoeste 15 Oeste 0 -- -- 91
2019-06-12 02:00:00 15.1 7 Oeste 12 Oeste 0 -- -- 92
2019-06-12 01:00:00 15.1 0 Calma 15 Este 0 -- -- 90
2019-06-12 00:00:00 15.5 5 Este 12 Este 0 -- -- 90
2019-06-11 23:00:00 16 4 Oeste 8 Noroeste 0 -- -- 87
2019-06-11 22:00:00 16.8 3 Sudoeste 9 Oeste 0 -- -- 83
2019-06-11 21:00:00 19 6 Noroeste 17 Oeste 0 -- -- 73
2019-06-11 20:00:00 21.7 11 Oeste 22 Oeste 0 -- -- 63
2019-06-11 19:00:00 23.1 11 Sudoeste 20 Oeste 0 -- -- 60
2019-06-11 18:00:00 23.1 9 Oeste 26 Oeste 0 -- -- 59
2019-06-11 17:00:00 23.6 14 Oeste 29 Oeste 0 -- -- 57
2019-06-11 16:00:00 23.2 11 Oeste 23 Sudoeste 0 -- -- 57
2019-06-11 15:00:00 22.4 10 Oeste 23 Sur 0 -- -- 60
2019-06-11 14:00:00 22.1 11 Oeste 26 Oeste 0 -- -- 58
2019-06-11 13:00:00 20.8 10 Oeste 21 Oeste 0 -- -- 64
2019-06-11 12:00:00 19.7 9 Sudoeste 21 Sudoeste 0 -- -- 69
2019-06-11 11:00:00 18 4 Oeste 10 Sudoeste 0 -- -- 75
2019-06-11 10:00:00 16.3 4 Sudoeste 9 Sudoeste 0 -- -- 81
2019-06-11 09:00:00 14.6 3 Sudoeste 10 Este 0 -- -- 84
2019-06-11 08:00:00 13.3 4 Nordeste 16 Este 0 -- -- 90
2019-06-11 07:00:00 13 4 Sudeste 11 Sudoeste 0 -- -- 92
2019-06-11 06:00:00 13.6 4 Oeste 12 Oeste 0 -- -- 93
2019-06-11 05:00:00 13.7 0 Calma 10 Nordeste 0 -- -- 87
2019-06-11 04:00:00 14 5 Nordeste 15 Nordeste 0 -- -- 88
2019-06-11 03:00:00 13.6 4 Oeste 12 Noroeste 0 -- -- 87
2019-06-11 02:00:00 14.1 5 Noroeste 8 Noroeste 0 -- -- 91
2019-06-11 01:00:00 14.3 0 Calma 7 Norte 0 -- -- 90
2019-06-11 00:00:00 14.5 3 Norte 6 Noroeste 0 -- -- 86
2019-06-10 23:00:00 15 0 Calma 9 Oeste 0 -- -- 84
2019-06-10 22:00:00 15.9 5 Oeste 11 Oeste 0 -- -- 81
2019-06-10 21:00:00 17.9 5 Oeste 16 Oeste 0 -- -- 75
2019-06-10 20:00:00 20.9 9 Oeste 23 Oeste 0 -- -- 63
2019-06-10 19:00:00 22.3 11 Oeste 26 Oeste 0 -- -- 57
2019-06-10 18:00:00 23.1 14 Oeste 24 Oeste 0 -- -- 55
2019-06-10 17:00:00 23.3 12 Oeste 23 Sudoeste 0 -- -- 56
2019-06-10 16:00:00 23.4 13 Oeste 24 Oeste 0 -- -- 57
2019-06-10 15:00:00 22.3 13 Oeste 24 Oeste 0 -- -- 59
2019-06-10 14:00:00 21.1 11 Oeste 22 Oeste 0 -- -- 66
2019-06-10 13:00:00 19.4 6 Oeste 15 Sudoeste 0 -- -- 72
2019-06-10 12:00:00 17.8 6 Sudoeste 14 Oeste 0 -- -- 76
2019-06-10 11:00:00 17.3 4 Sudoeste 10 Sudoeste 0 -- -- 76
2019-06-10 10:00:00 15.4 2 Oeste 7 Sudoeste 0 -- -- 86
2019-06-10 09:00:00 13.6 5 Sur 9 Sur 0 -- -- 93
2019-06-10 08:00:00 12.8 2 Oeste 7 Oeste 0 -- -- 94
2019-06-10 07:00:00 12.4 4 Norte 7 Noroeste 0 -- -- 93
2019-06-10 06:00:00 12.7 0 Calma 12 Este 0 -- -- 90
2019-06-10 05:00:00 13.5 0 Calma 5 Este 0 -- -- 76
2019-06-10 04:00:00 14.7 0 Calma 5 Este 0 -- -- 70
2019-06-10 03:00:00 13.3 3 Nordeste 5 Nordeste 0 -- -- 92
2019-06-10 02:00:00 13.6 2 Sur 6 Nordeste 0 -- -- 91
2019-06-10 01:00:00 14.1 3 Noroeste 6 Norte 0 -- -- 89
2019-06-10 00:00:00 14.5 3 Noroeste 6 Noroeste 0 -- -- 88
2019-06-09 23:00:00 14.7 3 Oeste 8 Oeste 0 -- -- 85
2019-06-09 22:00:00 15.8 3 Noroeste 8 Oeste 0 -- -- 79
2019-06-09 21:00:00 17.8 4 Noroeste 14 Oeste 0 -- -- 70
2019-06-09 20:00:00 20 9 Oeste 22 Oeste 0 -- -- 63
2019-06-09 19:00:00 22.1 9 Oeste 22 Noroeste 0 -- -- 56
2019-06-09 18:00:00 23 11 Oeste 20 Oeste 0 -- -- 53
2019-06-09 17:00:00 22.8 9 Oeste 21 Oeste 0 -- -- 53
2019-06-09 16:00:00 22.6 9 Oeste 23 Oeste 0 -- -- 54
2019-06-09 15:00:00 21.7 10 Sudoeste 24 Oeste 0 -- -- 56
2019-06-09 14:00:00 21.8 12 Oeste 23 Oeste 0 -- -- 56
2019-06-09 13:00:00 20.6 12 Oeste 22 Oeste 0 -- -- 58
2019-06-09 12:00:00 19.3 10 Oeste 18 Sudoeste 0 -- -- 63
2019-06-09 11:00:00 17.3 8 Oeste 15 Sudoeste 0 -- -- 69
2019-06-09 10:00:00 15.6 5 Oeste 9 Oeste 0 -- -- 75
2019-06-09 09:00:00 14.9 2 Noroeste 10 Norte 0 -- -- 76
2019-06-09 08:00:00 14 3 Oeste 12 Oeste 0 -- -- 81
2019-06-09 07:00:00 14.1 5 Sudoeste 15 Oeste 0 -- -- 82
2019-06-09 06:00:00 14.2 6 Oeste 13 Oeste 0 -- -- 83
2019-06-09 05:00:00 14.1 5 Oeste 12 Sudoeste 0 -- -- 86
2019-06-09 04:00:00 14.4 6 Sudoeste 16 Oeste 0 -- -- 86
2019-06-09 03:00:00 14.7 8 Oeste 18 Oeste 0 -- -- 84
2019-06-09 02:00:00 14.8 9 Oeste 17 Oeste 0 -- -- 86
2019-06-09 01:00:00 14.9 6 Oeste 13 Sudoeste 0 -- -- 87
2019-06-09 00:00:00 15.1 7 Sudoeste 13 Oeste 0 -- -- 85
2019-06-08 23:00:00 15.6 8 Oeste 14 Sudoeste 0 -- -- 80
2019-06-08 22:00:00 16 7 Oeste 18 Oeste 0 -- -- 81
2019-06-08 21:00:00 17.4 10 Oeste 19 Oeste 0 -- -- 74
2019-06-08 20:00:00 19.9 12 Oeste 24 Oeste 0 -- -- 68
2019-06-08 19:00:00 21.2 14 Oeste 30 Oeste 0 -- -- 64
2019-06-08 18:00:00 21.9 14 Oeste 27 Oeste 0 -- -- 63
2019-06-08 17:00:00 20.5 12 Oeste 24 Oeste 0 -- -- 67
2019-06-08 16:00:00 18.7 11 Oeste 21 Sudoeste 0 -- -- 75
2019-06-08 15:00:00 19.1 8 Oeste 19 Oeste 0 -- -- 73
2019-06-08 14:00:00 18.5 11 Oeste 20 Oeste 0 -- -- 75
2019-06-08 13:00:00 17.4 10 Oeste 20 Sudoeste 0 -- -- 81
2019-06-08 12:00:00 17.3 11 Oeste 22 Oeste 0 -- -- 82
2019-06-08 11:00:00 17.4 7 Oeste 16 Noroeste 0 -- -- 78
2019-06-08 10:00:00 16.1 9 Sur 14 Sur 0 -- -- 80
2019-06-08 09:00:00 15.3 6 Norte 12 Nordeste 0 -- -- 84
2019-06-08 08:00:00 14.1 0 Calma 8 Nordeste 0 -- -- 92
2019-06-08 07:00:00 13.5 0 Calma 4 Sudoeste 0 -- -- 92
2019-06-08 06:00:00 13.8 0 Calma 5 Noroeste 0 -- -- 91
2019-06-08 05:00:00 13.9 2 Noroeste 8 Norte 0 -- -- 91
2019-06-08 04:00:00 14.2 0 Calma 12 Este 0 -- -- 92
2019-06-08 03:00:00 14.6 8 Nordeste 14 Este 0 -- -- 89
2019-06-08 02:00:00 15 6 Este 9 Este 0 -- -- 86
2019-06-08 01:00:00 15 5 Este 9 Este 0 -- -- 87
2019-06-08 00:00:00 15.1 2 Norte 4 Norte 0 -- -- 86
2019-06-07 23:00:00 15.6 0 Calma 5 Oeste 0 -- -- 84
2019-06-07 22:00:00 16.2 4 Noroeste 10 Noroeste 0 -- -- 83
2019-06-07 21:00:00 17.1 5 Oeste 12 Sudoeste 0 -- -- 79
2019-06-07 20:00:00 19.2 6 Sudoeste 17 Oeste 0 -- -- 71
2019-06-07 19:00:00 20.7 12 Oeste 27 Oeste 0 -- -- 66
2019-06-07 18:00:00 21.8 16 Oeste 32 Oeste 0 -- -- 62
2019-06-07 17:00:00 22.5 15 Oeste 29 Oeste 0 -- -- 59
2019-06-07 16:00:00 22.7 15 Oeste 30 Oeste 0 -- -- 56
2019-06-07 15:00:00 20.9 11 Sudoeste 22 Sudoeste 0 -- -- 59
2019-06-07 14:00:00 21.3 12 Oeste 23 Oeste 0 -- -- 57
2019-06-07 13:00:00 20.6 11 Oeste 23 Oeste 0 -- -- 61
2019-06-07 12:00:00 19.1 10 Oeste 18 Oeste 0 -- -- 64
2019-06-07 11:00:00 17.1 6 Oeste 17 Sur 0 -- -- 70
2019-06-07 10:00:00 15.8 4 Sudeste 12 Norte 0 -- -- 73
2019-06-07 09:00:00 13.2 0 Calma 4 Oeste 0 -- -- 87
2019-06-07 08:00:00 12.3 3 Oeste 8 Oeste 0 -- -- 90
2019-06-07 07:00:00 12.2 3 Oeste 4 Oeste 0 -- -- 90
2019-06-07 06:00:00 12.2 4 Sur 10 Nordeste 0 -- -- 90
2019-06-07 05:00:00 12.4 2 Este 7 Sur 0 -- -- 90
2019-06-07 04:00:00 12.5 3 Sudoeste 11 Oeste 0 -- -- 89
2019-06-07 03:00:00 12.3 6 Oeste 10 Oeste 0 -- -- 88
2019-06-07 02:00:00 12.8 4 Sudoeste 8 Sudeste 0 -- -- 84
2019-06-07 01:00:00 13.3 0 Calma 11 Nordeste 0 -- -- 85
2019-06-07 00:00:00 13.8 0 Calma 13 Oeste 0 -- -- 84
2019-06-06 23:00:00 15.1 8 Oeste 15 Sudoeste 0 -- -- 77
2019-06-06 22:00:00 15.8 9 Oeste 15 Oeste 0 -- -- 78
2019-06-06 21:00:00 16.2 9 Oeste 19 Sur 0 -- -- 76
2019-06-06 20:00:00 18.7 9 Sudoeste 24 Oeste 0 -- -- 66
2019-06-06 19:00:00 20.8 14 Oeste 27 Oeste 0 -- -- 60
2019-06-06 18:00:00 19.6 12 Oeste 26 Oeste 0 -- -- 62
2019-06-06 17:00:00 21.1 15 Oeste 32 Oeste 0 -- -- 56
2019-06-06 16:00:00 22.4 13 Oeste 31 Oeste 0 -- -- 51
2019-06-06 15:00:00 20.5 13 Oeste 31 Oeste 0 -- -- 55
2019-06-06 14:00:00 20.1 10 Oeste 32 Oeste 0 -- -- 57
2019-06-06 13:00:00 19.2 12 Sudoeste 27 Oeste 0 -- -- 59
2019-06-06 12:00:00 17.5 10 Oeste 22 Oeste 0 -- -- 67
2019-06-06 11:00:00 16.4 6 Oeste 15 Oeste 0 -- -- 73
2019-06-06 10:00:00 16.2 7 Oeste 15 Oeste 0 -- -- 73
2019-06-06 09:00:00 15 6 Oeste 12 Oeste 0 -- -- 69
2019-06-06 08:00:00 14.2 4 Oeste 9 Sudoeste 0 -- -- 72
2019-06-06 07:00:00 14.1 4 Noroeste 9 Oeste 0 -- -- 82
2019-06-06 06:00:00 13.8 4 Sudoeste 7 Sudoeste 0 -- -- 76
2019-06-06 05:00:00 14.4 4 Oeste 10 Noroeste 0 -- -- 80
2019-06-06 04:00:00 15.1 7 Oeste 11 Sudoeste 0 -- -- 88
2019-06-06 03:00:00 15.1 4 Oeste 10 Oeste 0 -- -- 88
2019-06-06 02:00:00 15.2 9 Sudoeste 13 Sur 0 -- -- 88
2019-06-06 01:00:00 15.3 6 Sudoeste 10 Sudoeste 0 -- -- 87
2019-06-06 00:00:00 15.2 6 Sudoeste 12 Sudoeste 0 -- -- 88
2019-06-05 23:00:00 16.1 4 Oeste 12 Oeste 0 -- -- 83
2019-06-05 22:00:00 16.3 5 Sudoeste 16 Sur 0 -- -- 81
2019-06-05 21:00:00 17.7 9 Sur 17 Sudoeste 0 -- -- 78
2019-06-05 20:00:00 19.6 9 Oeste 24 Oeste 0 -- -- 73
2019-06-05 19:00:00 18.9 10 Oeste 21 Oeste 0 -- -- 73
2019-06-05 18:00:00 18.3 10 Oeste 17 Oeste 0 -- -- 74
2019-06-05 17:00:00 18.2 8 Sudoeste 22 Sudoeste 0 -- -- 77
2019-06-05 16:00:00 19 13 Sudoeste 19 Sur 0 -- -- 74
2019-06-05 15:00:00 19.8 12 Oeste 23 Oeste 0 -- -- 72
2019-06-05 14:00:00 18.5 7 Oeste 21 Oeste 0 -- -- 76
2019-06-05 13:00:00 17.5 7 Sudoeste 18 Sudoeste 0 -- -- 81
2019-06-05 12:00:00 18 11 Sudoeste 17 Sudoeste 0 -- -- 80
2019-06-05 11:00:00 18.7 7 Oeste 12 Sudoeste 0 -- -- 76
2019-06-05 10:00:00 17.5 3 Sudoeste 12 Sur 0 -- -- 77
2019-06-05 09:00:00 16.8 5 Sudeste 10 Este 0 -- -- 79
2019-06-05 08:00:00 15.6 7 Nordeste 16 Nordeste 0 -- -- 80
2019-06-05 07:00:00 15.1 0 Calma 7 Oeste 0 -- -- 82
2019-06-05 06:00:00 15.6 4 Norte 16 Este 0 -- -- 83
2019-06-05 05:00:00 15.5 4 Nordeste 10 Nordeste 0 -- -- 82
2019-06-05 04:00:00 16.1 2 Nordeste 9 Nordeste 0 -- -- 84
2019-06-05 03:00:00 17 5 Norte 7 Nordeste 0 -- -- 77
2019-06-05 02:00:00 18.3 3 Oeste 8 Sudoeste 0 -- -- 66
2019-06-05 01:00:00 19.5 0 Calma 6 Este 0 -- -- 53
2019-06-05 00:00:00 20 0 Calma 11 Norte 0 -- -- 53
2019-06-04 23:00:00 20.7 0 Calma 9 Nordeste 0 -- -- 47
2019-06-04 22:00:00 20.9 2 Sur 6 Oeste 0 -- -- 57
2019-06-04 21:00:00 22.5 4 Sudoeste 14 Sudoeste 0 -- -- 48
2019-06-04 20:00:00 25.9 9 Oeste 22 Oeste 0 -- -- 38
2019-06-04 19:00:00 27.1 11 Oeste 25 Oeste 0 -- -- 34
2019-06-04 18:00:00 28.5 12 Oeste 25 Oeste 0 -- -- 33
2019-06-04 17:00:00 28.9 13 Oeste 23 Oeste 0 -- -- 33
2019-06-04 16:00:00 29.4 12 Oeste 23 Noroeste 0 -- -- 33
2019-06-04 15:00:00 28.7 10 Oeste 21 Oeste 0 -- -- 37
2019-06-04 14:00:00 28.3 9 Oeste 22 Sudoeste 0 -- -- 43
2019-06-04 13:00:00 26.6 6 Oeste 20 Sur 0 -- -- 47
2019-06-04 12:00:00 25.7 4 Oeste 10 Oeste 0 -- -- 49
2019-06-04 11:00:00 25.1 5 Sudoeste 13 Sudoeste 0 -- -- 41
2019-06-04 10:00:00 24.9 4 Sur 9 Sur 0 -- -- 39
2019-06-04 09:00:00 25.1 3 Sur 7 Sudeste 0 -- -- 25
2019-06-04 08:00:00 23.9 4 Nordeste 5 Nordeste 0 -- -- 25
2019-06-04 07:00:00 23.5 0 Calma 6 Norte 0 -- -- 26
2019-06-04 06:00:00 23.5 2 Este 6 Nordeste 0 -- -- 25
2019-06-04 05:00:00 24.6 3 Sur 8 Sur 0 -- -- 26
2019-06-04 04:00:00 24.8 0 Calma 6 Nordeste 0 -- -- 27
2019-06-04 03:00:00 24.3 2 Norte 10 Este 0 -- -- 29
2019-06-04 02:00:00 24.9 4 Sudeste 10 Este 0 -- -- 29
2019-06-04 01:00:00 25.2 4 Sudeste 12 Sur 0 -- -- 29
2019-06-04 00:00:00 25.7 9 Sur 13 Sur 0 -- -- 30
2019-06-03 23:00:00 25.7 0 Calma 6 Sudoeste 0 -- -- 34
2019-06-03 22:00:00 25.9 2 Norte 5 Nordeste 0 -- -- 40
2019-06-03 21:00:00 26.6 0 Calma 8 Oeste 0 -- -- 42
2019-06-03 20:00:00 29.1 4 Oeste 12 Oeste 0 -- -- 39
2019-06-03 19:00:00 30.5 8 Oeste 20 Noroeste 0 -- -- 37
2019-06-03 18:00:00 31.1 9 Oeste 17 Oeste 0 -- -- 32
2019-06-03 17:00:00 31 9 Oeste 23 Sudoeste 0 -- -- 29
2019-06-03 16:00:00 32.2 12 Sudoeste 21 Sur 0 -- -- 30
2019-06-03 15:00:00 32.9 8 Oeste 19 Oeste 0 -- -- 27
2019-06-03 14:00:00 32 8 Oeste 15 Sudoeste 0 -- -- 28
2019-06-03 13:00:00 31.4 8 Oeste 15 Oeste 0 -- -- 30
2019-06-03 12:00:00 31.2 8 Sudoeste 20 Sudoeste 0 -- -- 29
2019-06-03 11:00:00 31.4 6 Noroeste 12 Sudoeste 0 -- -- 21
2019-06-03 10:00:00 30.1 3 Sudoeste 9 Este 0 -- -- 18
2019-06-03 09:00:00 28.3 3 Sur 9 Nordeste 0 -- -- 19
2019-06-03 08:00:00 26.8 3 Sudeste 10 Sudeste 0 -- -- 19
2019-06-03 07:00:00 26.7 3 Este 13 Nordeste 0 -- -- 18
2019-06-03 06:00:00 26.4 6 Nordeste 12 Nordeste 0 -- -- 19
2019-06-03 05:00:00 26.6 0 Calma 15 Nordeste 0 -- -- 17
2019-06-03 04:00:00 26.4 5 Nordeste 13 Este 0 -- -- 18
2019-06-03 03:00:00 25.5 6 Norte 21 Nordeste 0 -- -- 20
2019-06-03 02:00:00 25.4 9 Sur 15 Sur 0 -- -- 23
2019-06-03 01:00:00 25.6 5 Sudeste 14 Nordeste 0 -- -- 23
2019-06-03 00:00:00 25.3 2 Norte 18 Este 0 -- -- 44
2019-06-02 23:00:00 25.9 4 Este 12 Este 0 -- -- 43
2019-06-02 22:00:00 26.6 0 Calma 8 Sudoeste 0 -- -- 34
2019-06-02 21:00:00 27.8 3 Sudoeste 9 Oeste 0 -- -- 32
2019-06-02 20:00:00 30.1 5 Oeste 10 Oeste 0 -- -- 34
2019-06-02 19:00:00 30.5 6 Oeste 13 Oeste 0 -- -- 35
2019-06-02 18:00:00 30.5 6 Oeste 14 Oeste 0 -- -- 36
2019-06-02 17:00:00 30.6 8 Oeste 17 Oeste 0 -- -- 45
2019-06-02 16:00:00 31.2 8 Oeste 17 Oeste 0 -- -- 44
2019-06-02 15:00:00 31.1 8 Oeste 14 Noroeste 0 -- -- 43
2019-06-02 14:00:00 31.5 5 Oeste 21 Este 0 -- -- 42
2019-06-02 13:00:00 31.7 9 Este 21 Sudeste 0 -- -- 29
2019-06-02 12:00:00 30.2 9 Sudeste 23 Este 0 -- -- 30
2019-06-02 11:00:00 28.1 4 Oeste 10 Sur 0 -- -- 36
2019-06-02 10:00:00 27.1 3 Sudoeste 9 Norte 0 -- -- 29
2019-06-02 09:00:00 28.1 8 Nordeste 21 Nordeste 0 -- -- 25
2019-06-02 08:00:00 26.5 9 Norte 22 Nordeste 0 -- -- 27
2019-06-02 07:00:00 26.7 10 Nordeste 33 Nordeste 0 -- -- 25
2019-06-02 06:00:00 26.9 21 Nordeste 40 Nordeste 0 -- -- 20
2019-06-02 05:00:00 26.2 15 Nordeste 37 Norte 0 -- -- 26
2019-06-02 04:00:00 25.9 17 Nordeste 37 Nordeste 0 -- -- 25
2019-06-02 03:00:00 25.2 25 Nordeste 34 Nordeste 0 -- -- 27
2019-06-02 02:00:00 23.2 12 Nordeste 22 Nordeste 0 -- -- 31
2019-06-02 01:00:00 23 7 Este 12 Este 0 -- -- 38
2019-06-02 00:00:00 22.2 4 Nordeste 12 Nordeste 0 -- -- 50
2019-06-01 23:00:00 23.7 8 Nordeste 15 Este 0 -- -- 39
2019-06-01 22:00:00 25.6 4 Nordeste 8 Este 0 -- -- 30
2019-06-01 21:00:00 26.6 3 Este 9 Este 0 -- -- 26
2019-06-01 20:00:00 25 5 Noroeste 11 Oeste 0 -- -- 56
2019-06-01 19:00:00 25.9 6 Oeste 12 Noroeste 0 -- -- 54
2019-06-01 18:00:00 26.4 6 Noroeste 17 Oeste 0 -- -- 54
2019-06-01 17:00:00 26.4 8 Oeste 16 Oeste 0 -- -- 54
2019-06-01 16:00:00 26.6 8 Oeste 15 Oeste 0 -- -- 53
2019-06-01 15:00:00 26.3 7 Oeste 15 Oeste 0 -- -- 54
2019-06-01 14:00:00 24.9 8 Oeste 16 Oeste 0 -- -- 58
2019-06-01 13:00:00 24.3 9 Oeste 16 Oeste 0 -- -- 60
2019-06-01 12:00:00 23 5 Oeste 10 Oeste 0 -- -- 64
2019-06-01 11:00:00 22.1 4 Oeste 10 Sudoeste 0 -- -- 65
2019-06-01 10:00:00 22.2 2 Sur 9 Sudoeste 0 -- -- 61
2019-06-01 09:00:00 22.2 4 Sur 15 Sur 0 -- -- 57
2019-06-01 08:00:00 24.3 7 Nordeste 17 Nordeste 0 -- -- 31
2019-06-01 07:00:00 24.2 11 Nordeste 26 Nordeste 0 -- -- 31
2019-06-01 06:00:00 24.5 17 Nordeste 35 Nordeste 0 -- -- 31
2019-06-01 05:00:00 24.1 10 Nordeste 15 Nordeste 0 -- -- 34
2019-06-01 04:00:00 21.7 0 Calma 6 Nordeste 0 -- -- 42
2019-06-01 03:00:00 18.3 0 Calma 4 Nordeste 0 -- -- 66
2019-06-01 02:00:00 18.2 0 Calma 6 Sur 0 -- -- 64
2019-06-01 01:00:00 20.1 2 Sur 4 Este 0 -- -- 55
2019-06-01 00:00:00 20.6 0 Calma 4 Sudoeste 0 -- -- 54
2019-05-31 23:00:00 21.9 0 Calma 4 Nordeste 0 -- -- 61
2019-05-31 22:00:00 22.7 0 Calma 3 Norte 0 -- -- 58
2019-05-31 21:00:00 24 0 Calma 6 Noroeste 0 -- -- 55
2019-05-31 20:00:00 25.1 3 Norte 8 Oeste 0 -- -- 57
2019-05-31 19:00:00 25.8 5 Oeste 15 Oeste 0 -- -- 55
2019-05-31 18:00:00 26 8 Oeste 21 Noroeste 0 -- -- 55
2019-05-31 17:00:00 25.7 9 Oeste 18 Oeste 0 -- -- 55
2019-05-31 16:00:00 24.9 10 Oeste 20 Noroeste 0 -- -- 57
2019-05-31 15:00:00 23.2 6 Oeste 14 Oeste 0 -- -- 62
2019-05-31 14:00:00 24.9 6 Oeste 15 Oeste 0 -- -- 57
2019-05-31 13:00:00 24.9 7 Oeste 12 Oeste 0 -- -- 56
2019-05-31 12:00:00 25.3 5 Sudoeste 11 Sudoeste 0 -- -- 46
2019-05-31 11:00:00 25.5 4 Sudoeste 8 Sudoeste 0 -- -- 46
2019-05-31 10:00:00 24.1 0 Calma 6 Sudeste 0 -- -- 33
2019-05-31 09:00:00 23.4 0 Calma 4 Nordeste 0 -- -- 30
2019-05-31 08:00:00 21.2 0 Calma 5 Este 0 -- -- 31
2019-05-31 07:00:00 20.7 4 Este 6 Este 0 -- -- 24
2019-05-31 06:00:00 20.4 2 Nordeste 6 Norte 0 -- -- 39
2019-05-31 05:00:00 21.1 0 Calma 9 Sudeste 0 -- -- 34
2019-05-31 04:00:00 21.6 5 Sudeste 6 Sudeste 0 -- -- 39
2019-05-31 03:00:00 22.3 0 Calma 5 Norte 0 -- -- 38
2019-05-31 02:00:00 22.4 3 Nordeste 5 Este 0 -- -- 37
2019-05-31 01:00:00 22.7 3 Este 4 Este 0 -- -- 33
2019-05-31 00:00:00 22.4 0 Calma 5 Nordeste 0 -- -- 44
2019-05-30 23:00:00 22 2 Norte 6 Noroeste 0 -- -- 52
2019-05-30 22:00:00 21.8 0 Calma 3 Nordeste 0 -- -- 59
2019-05-30 21:00:00 23.3 0 Calma 6 Noroeste 0 -- -- 57
2019-05-30 20:00:00 24.7 4 Noroeste 10 Noroeste 0 -- -- 55
2019-05-30 19:00:00 24.5 7 Oeste 17 Oeste 0 -- -- 56
2019-05-30 18:00:00 25.3 8 Noroeste 18 Oeste 0 -- -- 54
2019-05-30 17:00:00 25.2 9 Oeste 18 Oeste 0 -- -- 54
2019-05-30 16:00:00 24.9 11 Oeste 20 Sudoeste 0 -- -- 54
2019-05-30 15:00:00 25.4 11 Oeste 21 Oeste 0 -- -- 53
2019-05-30 14:00:00 24.6 10 Oeste 18 Oeste 0 -- -- 55
2019-05-30 13:00:00 22.7 6 Oeste 19 Oeste 0 -- -- 61
2019-05-30 12:00:00 21.9 4 Oeste 9 Noroeste 0 -- -- 63
2019-05-30 11:00:00 22.2 3 Oeste 6 Norte 0 -- -- 58
2019-05-30 10:00:00 21.7 0 Calma 4 Oeste 0 -- -- 53
2019-05-30 09:00:00 21.1 0 Calma 4 Nordeste 0 -- -- 53
2019-05-30 08:00:00 19.2 0 Calma 6 Norte 0 -- -- 58
2019-05-30 07:00:00 18.6 2 Norte 4 Nordeste 0 -- -- 60
2019-05-30 06:00:00 18.2 0 Calma 8 Sur 0 -- -- 62
2019-05-30 05:00:00 17.9 2 Sur 8 Sur 0 -- -- 65
2019-05-30 04:00:00 19 0 Calma 6 Nordeste 0 -- -- 62
2019-05-30 03:00:00 17.3 4 Nordeste 5 Nordeste 0 -- -- 72
2019-05-30 02:00:00 18.8 2 Nordeste 5 Nordeste 0 -- -- 65
2019-05-30 01:00:00 19 2 Nordeste 4 Nordeste 0 -- -- 67
2019-05-30 00:00:00 18.3 0 Calma 6 Nordeste 0 -- -- 70
2019-05-29 23:00:00 18.1 4 Nordeste 5 Nordeste 0 -- -- 74
2019-05-29 22:00:00 18.9 0 Calma 4 Noroeste 0 -- -- 70
2019-05-29 21:00:00 19.6 3 Norte 9 Oeste 0 -- -- 67
2019-05-29 20:00:00 22.3 5 Noroeste 19 Noroeste 0 -- -- 60
2019-05-29 19:00:00 23.6 10 Oeste 22 Oeste 0 -- -- 57
2019-05-29 18:00:00 24.6 11 Oeste 22 Oeste 0 -- -- 55
2019-05-29 17:00:00 25.3 12 Oeste 20 Oeste 0 -- -- 53
2019-05-29 16:00:00 25.4 11 Oeste 24 Oeste 0 -- -- 51
2019-05-29 15:00:00 25.3 9 Norte 29 Noroeste 0 -- -- 51
2019-05-29 14:00:00 23.8 7 Sudoeste 16 Oeste 0 -- -- 57
2019-05-29 13:00:00 22.1 6 Oeste 15 Oeste 0 -- -- 63
2019-05-29 12:00:00 21.3 6 Oeste 13 Oeste 0 -- -- 64
2019-05-29 11:00:00 20.2 4 Noroeste 8 Norte 0 -- -- 66
2019-05-29 10:00:00 19.3 2 Norte 6 Nordeste 0 -- -- 67
2019-05-29 09:00:00 16.6 2 Norte 5 Nordeste 0 -- -- 80
2019-05-29 08:00:00 18.7 3 Nordeste 5 Nordeste 0 -- -- 43
2019-05-29 07:00:00 18.2 3 Norte 5 Nordeste 0 -- -- 49
2019-05-29 06:00:00 18.7 3 Nordeste 6 Este 0 -- -- 50
2019-05-29 05:00:00 19.5 7 Este 10 Este 0 -- -- 45
2019-05-29 04:00:00 19.5 10 Este 12 Nordeste 0 -- -- 51
2019-05-29 03:00:00 20 3 Este 5 Este 0 -- -- 43
2019-05-29 02:00:00 19.7 3 Norte 9 Noroeste 0 -- -- 43
2019-05-29 01:00:00 19.4 4 Norte 7 Norte 0 -- -- 56
2019-05-29 00:00:00 19.7 2 Noroeste 5 Noroeste 0 -- -- 58
2019-05-28 23:00:00 20.1 0 Calma 3 Noroeste 0 -- -- 65
2019-05-28 22:00:00 20.2 0 Calma 4 Este 0 -- -- 55
2019-05-28 21:00:00 20.6 3 Norte 9 Oeste 0 -- -- 69
2019-05-28 20:00:00 23.2 5 Oeste 16 Noroeste 0 -- -- 62
2019-05-28 19:00:00 24.7 9 Oeste 22 Oeste 0 -- -- 57
2019-05-28 18:00:00 25.2 12 Oeste 21 Noroeste 0 -- -- 56
2019-05-28 17:00:00 25.2 11 Oeste 20 Oeste 0 -- -- 57
2019-05-28 16:00:00 25.5 10 Oeste 22 Sudoeste 0 -- -- 56
2019-05-28 15:00:00 25.6 10 Sudoeste 17 Oeste 0 -- -- 54
2019-05-28 14:00:00 24.7 9 Oeste 14 Oeste 0 -- -- 58
2019-05-28 13:00:00 23.8 6 Oeste 15 Oeste 0 -- -- 62
2019-05-28 12:00:00 23.1 7 Oeste 12 Noroeste 0 -- -- 62
2019-05-28 11:00:00 23.2 6 Sudoeste 11 Oeste 0 -- -- 57
2019-05-28 10:00:00 23.3 3 Norte 6 Noroeste 0 -- -- 33
2019-05-28 09:00:00 20.6 0 Calma 5 Noroeste 0 -- -- 39
2019-05-28 08:00:00 19.9 2 Este 7 Nordeste 0 -- -- 37
2019-05-28 07:00:00 18.9 6 Nordeste 8 Nordeste 0 -- -- 43
2019-05-28 06:00:00 19.3 2 Oeste 8 Este 0 -- -- 43
2019-05-28 05:00:00 19.7 0 Calma 5 Nordeste 0 -- -- 40
2019-05-28 04:00:00 19.8 0 Calma 4 Nordeste 0 -- -- 42
2019-05-28 03:00:00 19.6 0 Calma 6 Nordeste 0 -- -- 43
2019-05-28 02:00:00 19.2 0 Calma 4 Nordeste 0 -- -- 49
2019-05-28 01:00:00 19.2 0 Calma 5 Nordeste 0 -- -- 50
2019-05-28 00:00:00 18.9 0 Calma 4 Nordeste 0 -- -- 51
2019-05-27 23:00:00 18.8 3 Nordeste 5 Nordeste 0 -- -- 56
2019-05-27 22:00:00 19 2 Oeste 5 Oeste 0 -- -- 58
2019-05-27 21:00:00 20.9 2 Noroeste 13 Oeste 0 -- -- 51
2019-05-27 20:00:00 22.9 8 Oeste 21 Sudoeste 0 -- -- 45
2019-05-27 19:00:00 25.2 10 Oeste 23 Oeste 0 -- -- 41
2019-05-27 18:00:00 27.5 10 Oeste 25 Sudoeste 0 -- -- 39
2019-05-27 17:00:00 27.6 10 Oeste 20 Oeste 0 -- -- 37
2019-05-27 16:00:00 25.2 9 Oeste 24 Oeste 0 -- -- 46
2019-05-27 15:00:00 25.4 12 Sudoeste 25 Sudoeste 0 -- -- 47
2019-05-27 14:00:00 26.4 10 Oeste 20 Oeste 0 -- -- 39
2019-05-27 13:00:00 25.9 10 Sudoeste 25 Sudoeste 0 -- -- 38
2019-05-27 12:00:00 25.3 8 Oeste 15 Noroeste 0 -- -- 36
2019-05-27 11:00:00 23 8 Sudoeste 15 Sudoeste 0 -- -- 42
2019-05-27 10:00:00 21.7 4 Sudoeste 7 Sur 0 -- -- 38
2019-05-27 09:00:00 20.3 3 Norte 9 Nordeste 0 -- -- 40
2019-05-27 08:00:00 18.1 6 Nordeste 10 Nordeste 0 -- -- 44
2019-05-27 07:00:00 17.5 0 Calma 4 Nordeste 0 -- -- 47
2019-05-27 06:00:00 17.9 0 Calma 6 Nordeste 0 -- -- 48
2019-05-27 05:00:00 17.8 3 Nordeste 6 Norte 0 -- -- 49
2019-05-27 04:00:00 17.5 0 Calma 4 Norte 0 -- -- 52
2019-05-27 03:00:00 17.9 2 Nordeste 7 Este 0 -- -- 58
2019-05-27 02:00:00 18.3 2 Sudeste 5 Sudeste 0 -- -- 49
2019-05-27 01:00:00 17.5 0 Calma 4 Nordeste 0 -- -- 72
2019-05-27 00:00:00 18.3 3 Este 5 Este 0 -- -- 71